Time;durP1;ratioP1;P1;durP2;ratioP2;P2;SDS_P1;SDS_P2;PMS_P1;PMS_P2;Temp;Humidity;BMP_temperature;BMP_pressure;BME280_temperature;BME280_humidity;BME280_pressure;Samples;Min_cycle;Max_cycle;Signal;HPM_P1;HPM_P2
2021/09/03 00:02:14;;;;;;;7.80;5.70;;;12.30;99.90;;;;;;5050702;28;20825;-65
2021/09/03 00:04:41;;;;;;;7.77;6.40;;;12.30;99.90;;;;;;5050327;28;20459;-65
2021/09/03 00:07:09;;;;;;;7.37;6.37;;;12.20;99.90;;;;;;5050297;28;20854;-65
2021/09/03 00:09:36;;;;;;;9.17;5.93;;;12.30;99.90;;;;;;5050312;28;20459;-65
2021/09/03 00:12:03;;;;;;;13.00;6.90;;;12.20;99.90;;;;;;5050316;28;20475;-65
2021/09/03 00:14:30;;;;;;;9.03;6.60;;;12.20;99.90;;;;;;5050588;28;20460;-67
2021/09/03 00:16:57;;;;;;;12.87;6.70;;;12.20;99.90;;;;;;5050299;28;20888;-67
2021/09/03 00:19:24;;;;;;;6.63;6.00;;;12.20;99.90;;;;;;5050251;28;20467;-68
2021/09/03 00:21:52;;;;;;;6.23;5.63;;;12.10;99.90;;;;;;5050122;28;20459;-68
2021/09/03 00:24:20;;;;;;;8.37;5.90;;;12.10;99.90;;;;;;5050257;28;20459;-68
2021/09/03 00:26:47;;;;;;;11.03;6.50;;;12.10;99.90;;;;;;5050211;28;20567;-68
2021/09/03 00:29:14;;;;;;;6.80;5.90;;;12.10;99.90;;;;;;5050318;28;20490;-68
2021/09/03 00:31:41;;;;;;;13.03;6.57;;;12.10;99.90;;;;;;5050562;28;20463;-67
2021/09/03 00:34:08;;;;;;;9.97;7.00;;;12.10;99.90;;;;;;5054203;28;20464;-68
2021/09/03 00:36:34;;;;;;;9.50;6.10;;;12.00;99.90;;;;;;5054361;28;20479;-67
2021/09/03 00:39:01;;;;;;;6.67;5.97;;;12.00;99.90;;;;;;5054037;28;20871;-68
2021/09/03 00:41:29;;;;;;;11.90;5.85;;;12.00;99.90;;;;;;5054106;28;20463;-67
2021/09/03 00:43:56;;;;;;;8.53;5.70;;;12.00;99.90;;;;;;5054288;28;20196;-68
2021/09/03 00:46:22;;;;;;;5.97;5.38;;;12.00;99.90;;;;;;5054403;28;20463;-67
2021/09/03 00:48:49;;;;;;;8.30;5.57;;;12.00;99.90;;;;;;5054001;28;20227;-67
2021/09/03 00:51:16;;;;;;;10.07;6.07;;;12.00;99.90;;;;;;5054208;28;20467;-68
2021/09/03 00:53:42;;;;;;;6.60;5.90;;;11.90;99.90;;;;;;5054020;28;20214;-68
2021/09/03 00:56:09;;;;;;;6.70;5.90;;;11.90;99.90;;;;;;5054395;28;20459;-67
2021/09/03 00:58:37;;;;;;;9.90;5.63;;;11.90;99.90;;;;;;5054375;28;20197;-67
2021/09/03 01:01:04;;;;;;;6.57;5.53;;;11.80;99.90;;;;;;5053708;28;20498;-68
2021/09/03 01:03:31;;;;;;;7.80;5.82;;;11.80;99.90;;;;;;5054034;28;20459;-68
2021/09/03 01:06:02;;;;;;;9.23;6.30;;;11.80;99.90;;;;;;5053948;28;20575;-67
2021/09/03 01:08:29;;;;;;;8.00;5.80;;;11.80;99.90;;;;;;5053841;28;20320;-68
2021/09/03 01:10:55;;;;;;;7.70;6.00;;;11.80;99.90;;;;;;5053517;28;20197;-67
2021/09/03 01:13:22;;;;;;;6.53;5.53;;;11.70;99.90;;;;;;5053644;28;20843;-68
2021/09/03 01:15:50;;;;;;;6.20;5.30;;;11.70;99.90;;;;;;5053790;28;20467;-68
2021/09/03 01:18:17;;;;;;;5.77;5.17;;;11.70;99.90;;;;;;5053771;28;20487;-67
2021/09/03 01:20:44;;;;;;;5.63;5.03;;;11.70;99.90;;;;;;5053300;28;20810;-67
2021/09/03 01:23:13;;;;;;;6.65;5.82;;;11.70;99.90;;;;;;5053949;28;20463;-67
2021/09/03 01:25:40;;;;;;;7.47;5.70;;;11.70;99.90;;;;;;5053773;28;20216;-67
2021/09/03 01:28:08;;;;;;;7.40;5.95;;;11.70;99.90;;;;;;5053476;28;20487;-68
2021/09/03 01:30:35;;;;;;;8.03;5.83;;;11.60;99.90;;;;;;5053188;28;20197;-68
2021/09/03 01:33:01;;;;;;;6.47;5.87;;;11.60;99.90;;;;;;5053372;28;20463;-68
2021/09/03 01:35:28;;;;;;;6.67;5.70;;;11.60;99.90;;;;;;5053564;28;20467;-68
2021/09/03 01:37:55;;;;;;;8.97;5.90;;;11.50;99.90;;;;;;5053150;28;20476;-68
2021/09/03 01:40:23;;;;;;;7.40;5.28;;;11.50;99.90;;;;;;5053087;28;20463;-67
2021/09/03 01:42:50;;;;;;;8.68;6.05;;;11.50;99.90;;;;;;5052844;28;20208;-68
2021/09/03 01:45:16;;;;;;;7.57;6.20;;;11.50;99.90;;;;;;5053464;28;20197;-67
2021/09/03 01:47:43;;;;;;;6.93;5.95;;;11.50;99.90;;;;;;5052968;28;20518;-67
2021/09/03 01:50:10;;;;;;;7.70;5.95;;;11.40;99.90;;;;;;5052764;28;20609;-68
2021/09/03 01:52:37;;;;;;;8.55;6.20;;;11.40;99.90;;;;;;5053049;28;20197;-68
2021/09/03 01:55:05;;;;;;;7.43;5.78;;;11.40;99.90;;;;;;5052801;28;20291;-68
2021/09/03 01:57:33;;;;;;;6.60;5.88;;;11.40;99.90;;;;;;5052734;28;20213;-68
2021/09/03 02:00:00;;;;;;;6.78;5.20;;;11.40;99.90;;;;;;5052214;28;20205;-67
2021/09/03 02:02:29;;;;;;;6.70;5.93;;;11.40;99.90;;;;;;5052844;28;20201;-68
2021/09/03 02:04:55;;;;;;;7.32;6.00;;;11.40;99.90;;;;;;5052626;28;20224;-67
2021/09/03 02:07:22;;;;;;;10.45;5.50;;;11.30;99.90;;;;;;5052543;28;20232;-68
2021/09/03 02:09:49;;;;;;;7.00;5.50;;;11.30;99.90;;;;;;5052225;28;20216;-67
2021/09/03 02:12:16;;;;;;;9.95;6.57;;;11.30;99.90;;;;;;5052423;28;20213;-67
2021/09/03 02:14:45;;;;;;;6.65;5.68;;;11.30;99.90;;;;;;5052352;28;20201;-68
2021/09/03 02:17:12;;;;;;;8.10;5.55;;;11.20;99.90;;;;;;5052537;28;20586;-67
2021/09/03 02:19:39;;;;;;;6.40;5.57;;;11.20;99.90;;;;;;5052560;28;20201;-68
2021/09/03 02:22:06;;;;;;;7.65;6.30;;;11.20;99.90;;;;;;5051973;28;20217;-68
2021/09/03 02:24:33;;;;;;;7.47;5.30;;;11.20;99.90;;;;;;5052396;28;20205;-68
2021/09/03 02:27:00;;;;;;;7.32;5.43;;;11.20;99.90;;;;;;5052265;28;20229;-68
2021/09/03 02:29:26;;;;;;;10.20;6.38;;;11.20;99.90;;;;;;5052218;28;20204;-67
2021/09/03 02:31:55;;;;;;;8.95;6.20;;;11.20;99.90;;;;;;5051889;28;20201;-67
2021/09/03 02:34:22;;;;;;;7.03;6.28;;;11.10;99.90;;;;;;5052172;28;20205;-67
2021/09/03 02:36:49;;;;;;;8.35;6.20;;;11.10;99.90;;;;;;5052064;28;20224;-67
2021/09/03 02:39:16;;;;;;;6.53;5.80;;;11.10;99.90;;;;;;5052116;28;20228;-67
2021/09/03 02:41:43;;;;;;;8.43;6.32;;;11.10;99.90;;;;;;5051643;28;20197;-67
2021/09/03 02:44:10;;;;;;;7.95;5.93;;;11.10;99.90;;;;;;5051747;28;20224;-68
2021/09/03 02:46:37;;;;;;;8.20;5.75;;;11.10;99.90;;;;;;5051898;28;20237;-67
2021/09/03 02:49:05;;;;;;;8.70;6.13;;;11.10;99.90;;;;;;5051771;28;20823;-68
2021/09/03 02:51:32;;;;;;;6.90;5.18;;;11.00;99.90;;;;;;5051786;28;20205;-67
2021/09/03 02:53:58;;;;;;;7.45;5.10;;;11.00;99.90;;;;;;5051280;28;20201;-68
2021/09/03 02:56:25;;;;;;;7.45;5.78;;;11.00;99.90;;;;;;5051537;28;20205;-68
2021/09/03 02:58:52;;;;;;;7.67;6.50;;;11.00;99.90;;;;;;5051207;28;20205;-67
2021/09/03 03:01:18;;;;;;;8.63;5.88;;;11.00;99.90;;;;;;5051399;28;20467;-67
2021/09/03 03:03:45;;;;;;;7.22;5.72;;;11.00;99.90;;;;;;5051259;28;20205;-67
2021/09/03 03:06:13;;;;;;;8.68;5.90;;;11.00;99.90;;;;;;5051699;28;20559;-67
2021/09/03 03:08:40;;;;;;;6.20;5.60;;;11.00;99.90;;;;;;5051305;28;20225;-67
2021/09/03 03:11:06;;;;;;;6.90;5.40;;;10.90;99.90;;;;;;5051151;28;20202;-68
2021/09/03 03:13:33;;;;;;;8.40;6.32;;;11.00;99.90;;;;;;5100012;22;20229;-68
2021/09/03 03:16:00;;;;;;;7.90;5.90;;;10.90;99.90;;;;;;5030058;28;20390;-68
2021/09/03 03:18:27;;;;;;;7.68;6.53;;;11.00;99.90;;;;;;5031284;28;20229;-68
2021/09/03 03:20:54;;;;;;;6.97;5.55;;;10.90;99.90;;;;;;5030847;28;20205;-68
2021/09/03 03:23:22;;;;;;;10.77;6.28;;;10.90;99.90;;;;;;5031291;28;20205;-68
2021/09/03 03:25:49;;;;;;;10.13;7.13;;;10.90;99.90;;;;;;5031297;28;20673;-68
2021/09/03 03:28:15;;;;;;;6.78;6.07;;;10.90;99.90;;;;;;5030883;28;20705;-68
2021/09/03 03:30:42;;;;;;;10.05;6.50;;;10.90;99.90;;;;;;5030553;28;20210;-68
2021/09/03 03:33:09;;;;;;;7.70;5.55;;;10.90;99.90;;;;;;5030696;28;20206;-68
2021/09/03 03:35:35;;;;;;;8.00;6.35;;;10.90;99.90;;;;;;5036926;28;20200;-68
2021/09/03 03:38:02;;;;;;;7.75;6.07;;;10.80;99.90;;;;;;5038719;28;20216;-68
2021/09/03 03:40:31;;;;;;;9.10;6.88;;;10.90;99.90;;;;;;5040306;28;20204;-68
2021/09/03 03:42:57;;;;;;;7.30;6.00;;;10.90;99.90;;;;;;5039305;28;20202;-68
2021/09/03 03:45:24;;;;;;;7.47;6.50;;;10.80;99.90;;;;;;5038610;28;20197;-68
2021/09/03 03:47:51;;;;;;;9.68;6.50;;;10.80;99.90;;;;;;5035884;28;20587;-68
2021/09/03 03:50:18;;;;;;;5.78;5.18;;;10.80;99.90;;;;;;5039558;28;20196;-68
2021/09/03 03:52:44;;;;;;;7.50;6.53;;;10.70;99.90;;;;;;5040362;28;20283;-69
2021/09/03 03:55:11;;;;;;;7.47;6.40;;;10.70;99.90;;;;;;5029690;28;20573;-67
2021/09/03 03:57:40;;;;;;;7.60;6.53;;;10.70;99.90;;;;;;5031241;28;20221;-68
2021/09/03 04:00:07;;;;;;;8.75;6.10;;;10.70;99.90;;;;;;5029429;28;20673;-68
2021/09/03 04:02:34;;;;;;;9.75;6.05;;;10.70;99.90;;;;;;5040986;28;20201;-67
2021/09/03 04:05:01;;;;;;;7.50;6.55;;;10.70;99.90;;;;;;5037873;28;20669;-67
2021/09/03 04:07:28;;;;;;;7.55;6.75;;;10.70;99.90;;;;;;5040658;28;20215;-68
2021/09/03 04:09:55;;;;;;;8.77;6.60;;;10.70;99.90;;;;;;5037815;28;20297;-68
2021/09/03 04:12:21;;;;;;;7.60;5.95;;;10.80;99.90;;;;;;5037838;28;20202;-68
2021/09/03 04:14:49;;;;;;;6.63;6.03;;;10.70;99.90;;;;;;5039501;28;20660;-68
2021/09/03 04:17:16;;;;;;;12.55;7.05;;;10.70;99.90;;;;;;5039520;28;20284;-67
2021/09/03 04:19:43;;;;;;;7.90;6.80;;;10.70;99.90;;;;;;5037572;28;20217;-67
2021/09/03 04:22:09;;;;;;;6.47;5.88;;;10.70;99.90;;;;;;5039338;28;20208;-67
2021/09/03 04:24:36;;;;;;;9.70;6.63;;;10.60;99.90;;;;;;5039641;28;20220;-67
2021/09/03 04:27:03;;;;;;;7.15;6.45;;;10.60;99.90;;;;;;5037509;28;20272;-68
2021/09/03 04:29:30;;;;;;;7.82;6.30;;;10.60;99.90;;;;;;5039902;28;20591;-67
2021/09/03 04:31:58;;;;;;;7.53;5.82;;;10.60;99.90;;;;;;5033354;28;20193;-67
2021/09/03 04:34:25;;;;;;;10.05;7.20;;;10.60;99.90;;;;;;5040046;28;20275;-68
2021/09/03 04:36:52;;;;;;;7.55;6.57;;;10.60;99.90;;;;;;5037244;28;20356;-68
2021/09/03 04:39:18;;;;;;;7.10;5.70;;;10.60;99.90;;;;;;5040734;28;20197;-68
2021/09/03 04:41:45;;;;;;;7.50;6.70;;;10.60;99.90;;;;;;5030843;28;20193;-68
2021/09/03 04:44:12;;;;;;;8.15;5.82;;;10.60;99.90;;;;;;5029271;28;20696;-68
2021/09/03 04:46:38;;;;;;;6.68;5.75;;;10.60;99.90;;;;;;5027823;28;20643;-68
2021/09/03 04:49:06;;;;;;;7.60;6.22;;;10.60;99.90;;;;;;5028481;28;20229;-68
2021/09/03 04:51:33;;;;;;;10.15;6.88;;;10.60;99.90;;;;;;5026859;28;20202;-68
2021/09/03 04:54:00;;;;;;;7.95;6.30;;;10.60;99.90;;;;;;5026226;28;20202;-68
2021/09/03 04:56:26;;;;;;;6.40;5.45;;;10.60;99.90;;;;;;5028209;28;20209;-68
2021/09/03 04:58:53;;;;;;;10.02;6.60;;;10.60;99.90;;;;;;5027887;28;20205;-68
2021/09/03 05:01:20;;;;;;;8.20;6.18;;;10.60;99.90;;;;;;5027567;28;20202;-68
2021/09/03 05:03:47;;;;;;;9.15;6.45;;;10.50;99.90;;;;;;5029870;28;20547;-68
2021/09/03 05:06:16;;;;;;;8.82;6.35;;;10.50;99.90;;;;;;5030414;28;20206;-68
2021/09/03 05:08:43;;;;;;;8.40;6.28;;;10.50;99.90;;;;;;5029676;28;20225;-68
2021/09/03 05:11:09;;;;;;;9.02;7.68;;;10.50;99.90;;;;;;5029711;28;20575;-68
2021/09/03 05:13:36;;;;;;;8.77;6.63;;;10.50;99.90;;;;;;5029673;28;20213;-68
2021/09/03 05:16:03;;;;;;;11.05;6.55;;;10.50;99.90;;;;;;5029514;28;20213;-68
2021/09/03 05:18:30;;;;;;;6.57;5.82;;;10.50;99.90;;;;;;5030222;28;20291;-68
2021/09/03 05:20:56;;;;;;;6.78;5.63;;;10.50;99.90;;;;;;5032366;28;20202;-68
2021/09/03 05:23:25;;;;;;;10.43;6.28;;;10.50;99.90;;;;;;5033347;28;20202;-68
2021/09/03 05:25:51;;;;;;;9.15;7.03;;;10.50;99.90;;;;;;5032613;28;20566;-68
2021/09/03 05:28:18;;;;;;;8.50;6.90;;;10.60;99.90;;;;;;5032586;28;20225;-68
2021/09/03 05:30:45;;;;;;;10.05;7.72;;;10.60;99.90;;;;;;5032273;28;20202;-68
2021/09/03 05:33:11;;;;;;;16.17;8.52;;;10.60;99.90;;;;;;5032683;28;20201;-68
2021/09/03 05:35:38;;;;;;;10.10;7.80;;;10.70;99.90;;;;;;5032757;28;20659;-68
2021/09/03 05:38:05;;;;;;;9.40;7.60;;;10.80;99.90;;;;;;5032883;28;20592;-68
2021/09/03 05:40:34;;;;;;;10.00;7.45;;;10.80;99.90;;;;;;5032456;28;20202;-68
2021/09/03 05:43:02;;;;;;;10.52;8.00;;;10.90;99.90;;;;;;5032717;28;20474;-68
2021/09/03 05:45:28;;;;;;;11.23;7.63;;;11.00;99.90;;;;;;5032603;28;20209;-68
2021/09/03 05:47:55;;;;;;;12.50;7.70;;;11.10;99.90;;;;;;5032153;28;20230;-68
2021/09/03 05:50:22;;;;;;;10.30;7.65;;;11.20;99.90;;;;;;5032076;28;20205;-68
2021/09/03 05:52:49;;;;;;;8.73;7.80;;;11.30;99.90;;;;;;5032337;28;20206;-68
2021/09/03 05:55:15;;;;;;;8.38;7.05;;;11.40;99.90;;;;;;5032467;28;20209;-68
2021/09/03 05:57:44;;;;;;;8.57;7.57;;;11.40;99.90;;;;;;5032027;28;20425;-68
2021/09/03 06:00:12;;;;;;;9.25;6.80;;;11.50;99.90;;;;;;5032445;28;20208;-68
2021/09/03 06:02:38;;;;;;;7.68;6.90;;;11.50;99.90;;;;;;5031898;28;20213;-68
2021/09/03 06:05:06;;;;;;;8.45;7.57;;;11.50;99.90;;;;;;5032590;28;20201;-67
2021/09/03 06:07:33;;;;;;;8.52;7.03;;;11.50;99.90;;;;;;5032133;28;20229;-68
2021/09/03 06:09:59;;;;;;;7.07;6.38;;;11.60;99.90;;;;;;5032177;28;20230;-68
2021/09/03 06:12:26;;;;;;;8.20;7.50;;;11.60;99.90;;;;;;5031545;28;20209;-68
2021/09/03 06:14:54;;;;;;;7.18;6.30;;;11.70;99.90;;;;;;5031949;28;20208;-68
2021/09/03 06:17:21;;;;;;;9.65;7.53;;;11.70;99.90;;;;;;5032427;28;20233;-68
2021/09/03 06:19:48;;;;;;;8.68;7.32;;;11.80;99.90;;;;;;5046021;28;20200;-68
2021/09/03 06:22:14;;;;;;;9.45;8.00;;;11.90;99.90;;;;;;5047083;28;20259;-68
2021/09/03 06:24:41;;;;;;;11.43;8.80;;;12.00;99.90;;;;;;5015674;28;20216;-68
2021/09/03 06:27:10;;;;;;;11.43;9.47;;;12.10;99.90;;;;;;5026984;28;20476;-69
2021/09/03 06:29:38;;;;;;;13.07;8.80;;;12.20;99.90;;;;;;5030136;28;20480;-67
2021/09/03 06:32:09;;;;;;;11.27;10.05;;;12.30;99.90;;;;;;5031637;28;20460;-68
2021/09/03 06:34:36;;;;;;;12.30;9.80;;;12.40;99.90;;;;;;5031577;28;20232;-68
2021/09/03 06:37:04;;;;;;;12.70;9.67;;;12.50;99.90;;;;;;5031612;28;20480;-68
2021/09/03 06:39:30;;;;;;;11.50;9.60;;;12.60;99.90;;;;;;5031408;28;20464;-68
2021/09/03 06:41:57;;;;;;;11.10;9.90;;;12.70;99.90;;;;;;5030828;28;20960;-68
2021/09/03 06:44:24;;;;;;;11.20;8.77;;;12.80;99.90;;;;;;5031626;28;20460;-68
2021/09/03 06:46:50;;;;;;;11.80;10.43;;;12.90;99.90;;;;;;5031018;28;20480;-68
2021/09/03 06:49:18;;;;;;;10.63;9.27;;;13.00;99.90;;;;;;5031479;28;20491;-68
2021/09/03 06:51:45;;;;;;;14.13;9.90;;;13.10;99.90;;;;;;5031058;28;20465;-68
2021/09/03 06:54:12;;;;;;;12.27;9.87;;;13.20;99.90;;;;;;5031156;28;20456;-68
2021/09/03 06:56:38;;;;;;;11.37;9.50;;;13.30;99.90;;;;;;5031331;28;20484;-68
2021/09/03 06:59:05;;;;;;;13.53;10.50;;;13.30;99.90;;;;;;5031032;28;20456;-68
2021/09/03 07:01:32;;;;;;;9.77;8.37;;;13.40;99.90;;;;;;5030023;28;20468;-68
2021/09/03 07:03:59;;;;;;;13.43;10.00;;;13.50;99.90;;;;;;5030649;28;20468;-68
2021/09/03 07:06:27;;;;;;;14.07;9.93;;;13.60;99.90;;;;;;5031438;28;20468;-68
2021/09/03 07:08:54;;;;;;;10.87;9.77;;;13.70;99.90;;;;;;5030724;28;20483;-68
2021/09/03 07:11:21;;;;;;;15.20;9.53;;;13.80;99.90;;;;;;5030940;28;20464;-68
2021/09/03 07:13:47;;;;;;;12.03;9.10;;;14.00;99.90;;;;;;5030615;28;20494;-69
2021/09/03 07:16:14;;;;;;;12.70;9.83;;;14.10;99.90;;;;;;5030865;28;20468;-68
2021/09/03 07:18:41;;;;;;;11.53;10.40;;;14.20;99.90;;;;;;5030666;28;20460;-68
2021/09/03 07:21:07;;;;;;;15.10;9.50;;;14.30;99.90;;;;;;5030483;28;20460;-68
2021/09/03 07:23:36;;;;;;;15.50;9.57;;;14.40;99.90;;;;;;5030724;28;20463;-68
2021/09/03 07:26:03;;;;;;;10.40;8.73;;;14.50;99.90;;;;;;5030901;28;20468;-68
2021/09/03 07:28:29;;;;;;;15.30;9.00;;;14.70;99.90;;;;;;5030109;28;20484;-68
2021/09/03 07:30:56;;;;;;;9.80;8.30;;;14.70;99.90;;;;;;5030004;28;20967;-68
2021/09/03 07:33:23;;;;;;;9.20;8.30;;;14.90;99.90;;;;;;5030570;28;20471;-68
2021/09/03 07:35:49;;;;;;;11.17;9.17;;;14.90;99.90;;;;;;5030550;28;20472;-68
2021/09/03 07:38:16;;;;;;;11.47;9.63;;;15.00;99.90;;;;;;5030483;28;20480;-68
2021/09/03 07:40:44;;;;;;;14.20;9.87;;;15.20;99.90;;;;;;5029741;28;20452;-68
2021/09/03 07:43:13;;;;;;;10.60;8.83;;;15.30;99.90;;;;;;5030770;28;20653;-68
2021/09/03 07:45:41;;;;;;;10.60;9.50;;;15.50;99.90;;;;;;5029860;28;20456;-68
2021/09/03 07:48:08;;;;;;;12.20;9.03;;;15.60;99.90;;;;;;5025818;28;20495;-68
2021/09/03 07:50:35;;;;;;;10.47;8.63;;;15.70;99.90;;;;;;5027093;28;20484;-68
2021/09/03 07:53:03;;;;;;;10.43;8.60;;;15.90;99.90;;;;;;5028507;28;21170;-68
2021/09/03 07:55:30;;;;;;;11.00;8.20;;;16.00;99.90;;;;;;5028896;28;20468;-68
2021/09/03 07:57:58;;;;;;;9.30;8.27;;;16.20;99.90;;;;;;5028290;28;20491;-68
2021/09/03 08:00:25;;;;;;;10.03;8.60;;;16.30;99.90;;;;;;5027807;28;20461;-68
2021/09/03 08:02:52;;;;;;;9.90;8.90;;;16.40;99.90;;;;;;5029294;28;20467;-68
2021/09/03 08:05:19;;;;;;;9.57;7.50;;;16.50;99.90;;;;;;5029876;28;20464;-68
2021/09/03 08:07:45;;;;;;;12.43;9.07;;;16.60;99.90;;;;;;5029509;28;20481;-68
2021/09/03 08:10:14;;;;;;;9.17;7.70;;;16.80;99.90;;;;;;5029563;28;20559;-68
2021/09/03 08:12:41;;;;;;;9.40;7.93;;;16.80;99.90;;;;;;5028987;28;20481;-68
2021/09/03 08:15:11;;;;;;;9.90;8.17;;;16.90;99.90;;;;;;5029710;28;20836;-68
2021/09/03 08:17:38;;;;;;;9.27;7.87;;;16.90;99.90;;;;;;5029109;28;20487;-68
2021/09/03 08:20:07;;;;;;;8.73;7.70;;;17.00;99.90;;;;;;5029637;28;20464;-68
2021/09/03 08:22:34;;;;;;;10.63;8.53;;;17.20;99.90;;;;;;5029076;28;20464;-68
2021/09/03 08:25:01;;;;;;;9.00;7.47;;;17.20;99.90;;;;;;5029577;28;20583;-68
2021/09/03 08:27:28;;;;;;;8.70;7.70;;;17.30;99.90;;;;;;5029691;28;20481;-68
2021/09/03 08:29:55;;;;;;;10.63;8.00;;;17.50;99.90;;;;;;5029034;28;20492;-68
2021/09/03 08:32:23;;;;;;;10.60;7.80;;;17.60;99.90;;;;;;5029365;28;20956;-68
2021/09/03 08:34:50;;;;;;;8.50;6.87;;;17.70;99.90;;;;;;5029108;28;20460;-68
2021/09/03 08:37:16;;;;;;;8.33;7.53;;;17.70;99.90;;;;;;5029577;28;20488;-68
2021/09/03 08:39:43;;;;;;;8.27;7.43;;;17.80;99.90;;;;;;5029336;28;20457;-68
2021/09/03 08:42:10;;;;;;;8.10;7.30;;;17.90;99.90;;;;;;5029412;28;20467;-68
2021/09/03 08:44:37;;;;;;;9.20;7.93;;;18.10;99.90;;;;;;5029582;28;20466;-68
2021/09/03 08:47:04;;;;;;;8.47;7.23;;;18.20;99.90;;;;;;5029430;28;20480;-68
2021/09/03 08:49:32;;;;;;;8.60;6.90;;;18.30;99.90;;;;;;5029810;28;20481;-68
2021/09/03 08:51:59;;;;;;;9.73;6.90;;;18.40;99.90;;;;;;5029014;28;20464;-68
2021/09/03 08:54:26;;;;;;;8.57;7.20;;;18.50;99.90;;;;;;5032143;28;20491;-68
2021/09/03 08:56:52;;;;;;;8.53;7.43;;;18.60;99.90;;;;;;5032994;28;20483;-68
2021/09/03 08:59:19;;;;;;;9.00;6.40;;;18.60;99.90;;;;;;5031345;28;20460;-68
2021/09/03 09:02:10;;;;;;;9.73;6.73;;;18.70;99.90;;;;;;5031135;28;20812;-67
2021/09/03 09:04:39;;;;;;;7.57;6.80;;;18.80;99.90;;;;;;5032023;28;20467;-68
2021/09/03 09:07:07;;;;;;;7.90;7.10;;;18.90;99.90;;;;;;5032137;28;20491;-68
2021/09/03 09:09:35;;;;;;;12.70;8.40;;;19.00;99.90;;;;;;5032136;28;20480;-68
2021/09/03 09:12:04;;;;;;;8.73;6.73;;;19.10;99.90;;;;;;5031360;28;20468;-68
2021/09/03 09:14:31;;;;;;;8.60;7.70;;;19.20;99.90;;;;;;5032425;28;20496;-68
2021/09/03 09:17:02;;;;;;;9.03;7.20;;;19.40;99.90;;;;;;5031165;28;20848;-67
2021/09/03 09:19:29;;;;;;;12.53;7.63;;;19.50;99.90;;;;;;5032419;28;20465;-68
2021/09/03 09:22:01;;;;;;;11.87;7.57;;;19.40;99.90;;;;;;5031544;28;20469;-67
2021/09/03 09:24:28;;;;;;;15.70;9.43;;;19.50;99.90;;;;;;5032127;28;20900;-68
2021/09/03 09:26:57;;;;;;;18.30;9.80;;;19.60;99.90;;;;;;5031663;28;20488;-68
2021/09/03 09:29:26;;;;;;;12.47;9.00;;;19.80;99.90;;;;;;5031896;28;20484;-68
2021/09/03 09:31:54;;;;;;;8.83;7.60;;;19.90;99.90;;;;;;5031508;28;20456;-67
2021/09/03 09:34:23;;;;;;;7.70;6.23;;;20.00;99.90;;;;;;5016241;28;20468;-68
2021/09/03 09:36:52;;;;;;;8.63;6.77;;;20.20;99.90;;;;;;5015182;28;20490;-68
2021/09/03 09:39:20;;;;;;;8.40;6.60;;;20.20;99.90;;;;;;5011158;28;20471;-68
2021/09/03 09:41:56;;;;;;;8.00;7.13;;;20.30;99.90;;;;;;5004862;28;20819;-67
2021/09/03 09:44:29;;;;;;;8.27;7.47;;;20.40;99.90;;;;;;5005930;28;20474;-65
2021/09/03 09:47:04;;;;;;;10.00;7.97;;;20.50;99.90;;;;;;5005972;28;20878;-67
2021/09/03 09:49:31;;;;;;;7.73;6.93;;;20.60;99.90;;;;;;5005549;28;20488;-65
2021/09/03 09:51:58;;;;;;;7.00;5.73;;;20.60;99.90;;;;;;5005718;28;20484;-66
2021/09/03 09:54:28;;;;;;;8.00;7.20;;;20.60;99.90;;;;;;5005315;28;20556;-66
2021/09/03 09:56:56;;;;;;;8.10;7.17;;;20.70;99.90;;;;;;5013563;28;20590;-68
2021/09/03 09:59:25;;;;;;;8.90;6.43;;;20.80;99.90;;;;;;5025934;28;20461;-68
2021/09/03 10:01:53;;;;;;;8.87;7.00;;;20.80;99.90;;;;;;5029669;28;20869;-68
2021/09/03 10:04:23;;;;;;;7.57;6.37;;;21.00;99.90;;;;;;5031531;28;20659;-68
2021/09/03 10:06:51;;;;;;;7.13;6.17;;;21.00;99.90;;;;;;5030824;28;20575;-68
2021/09/03 10:09:19;;;;;;;8.90;6.50;;;21.20;99.90;;;;;;5038864;28;20868;-68
2021/09/03 10:11:50;;;;;;;7.43;6.03;;;21.30;99.90;;;;;;5049952;28;20535;-68
2021/09/03 10:14:20;;;;;;;8.30;7.40;;;21.40;99.90;;;;;;5046818;28;20449;-68
2021/09/03 10:16:48;;;;;;;7.27;6.23;;;21.60;99.90;;;;;;5030474;28;20468;-68
2021/09/03 10:19:18;;;;;;;8.57;6.80;;;21.70;99.90;;;;;;5030578;28;20543;-68
2021/09/03 10:21:46;;;;;;;9.17;7.57;;;21.80;99.90;;;;;;5030455;28;20461;-68
2021/09/03 10:24:17;;;;;;;7.70;6.90;;;21.80;99.90;;;;;;5030691;28;20958;-68
2021/09/03 10:26:46;;;;;;;7.17;5.90;;;21.80;99.90;;;;;;5030435;28;20495;-68
2021/09/03 10:29:25;;;;;;;6.80;6.10;;;21.90;99.90;;;;;;5030585;28;20448;-68
2021/09/03 10:32:24;;;;;;;7.20;6.27;;;22.00;99.90;;;;;;5030438;28;20480;-68
2021/09/03 10:34:57;;;;;;;7.67;6.97;;;22.10;99.90;;;;;;5027881;28;21003;-68
2021/09/03 10:37:35;;;;;;;10.30;6.83;;;22.20;99.90;;;;;;5030704;28;20480;-68
2021/09/03 10:40:11;;;;;;;8.73;7.23;;;22.30;99.90;;;;;;5030202;28;20879;-67
2021/09/03 10:42:55;;;;;;;7.67;6.97;;;22.40;99.90;;;;;;5028510;28;20827;-68
2021/09/03 10:45:26;;;;;;;7.13;5.90;;;22.50;99.90;;;;;;5030611;28;20880;-68
2021/09/03 10:48:12;;;;;;;9.73;6.97;;;22.60;99.90;;;;;;5029124;28;20472;-68
2021/09/03 10:50:51;;;;;;;7.80;7.10;;;22.70;99.90;;;;;;5029849;28;21090;-68
2021/09/03 10:53:32;;;;;;;9.07;6.47;;;22.80;99.90;;;;;;5030101;28;20465;-68
2021/09/03 10:56:23;;;;;;;7.20;6.50;;;22.90;99.90;;;;;;5030627;28;20452;-68
2021/09/03 10:58:57;;;;;;;7.50;6.87;;;23.00;99.90;;;;;;5030166;28;20457;-68
2021/09/03 11:01:39;;;;;;;7.70;6.90;;;23.00;99.90;;;;;;5029622;28;20475;-68
2021/09/03 11:04:12;;;;;;;11.37;6.70;;;23.10;99.90;;;;;;5030256;28;20456;-68
2021/09/03 11:06:41;;;;;;;9.80;6.20;;;23.10;99.90;;;;;;5030681;28;20483;-68
2021/09/03 11:09:21;;;;;;;10.37;6.47;;;23.20;99.90;;;;;;5030542;28;20907;-68
2021/09/03 11:11:50;;;;;;;7.20;5.97;;;23.10;99.90;;;;;;5028634;28;20483;-68
2021/09/03 11:14:19;;;;;;;6.93;6.23;;;23.20;99.90;;;;;;5029301;28;20972;-68
2021/09/03 11:16:48;;;;;;;6.90;6.20;;;23.20;99.90;;;;;;5026475;28;20484;-68
2021/09/03 11:19:17;;;;;;;7.60;6.90;;;23.20;99.90;;;;;;5030513;28;20882;-68
2021/09/03 11:21:45;;;;;;;7.00;6.30;;;23.30;99.90;;;;;;5029331;28;20461;-68
2021/09/03 11:24:13;;;;;;;6.67;6.03;;;23.40;99.90;;;;;;5020315;28;20844;-68
2021/09/03 11:26:41;;;;;;;6.60;6.00;;;23.50;99.90;;;;;;5010090;28;20499;-68
2021/09/03 11:29:19;;;;;;;6.03;5.53;;;23.60;99.90;;;;;;5010172;28;20846;-68
2021/09/03 11:31:59;;;;;;;7.03;6.07;;;23.70;99.90;;;;;;5009398;28;20492;-68
2021/09/03 11:34:50;;;;;;;6.70;6.00;;;23.80;99.90;;;;;;5010241;28;20471;-68
2021/09/03 11:37:21;;;;;;;6.57;5.97;;;23.80;99.90;;;;;;5010687;28;20881;-68
2021/09/03 11:39:49;;;;;;;9.23;7.60;;;23.80;99.90;;;;;;5009671;28;20465;-68
2021/09/03 11:42:23;;;;;;;8.53;6.00;;;23.90;99.90;;;;;;5016028;28;20459;-68
2021/09/03 11:44:52;;;;;;;8.17;6.47;;;23.90;99.90;;;;;;5049521;28;20459;-67
2021/09/03 11:47:36;;;;;;;9.30;6.90;;;24.00;99.90;;;;;;5049166;28;20502;-67
2021/09/03 11:50:05;;;;;;;7.00;6.30;;;24.10;99.90;;;;;;5047766;28;20582;-67
2021/09/03 11:52:33;;;;;;;6.63;6.03;;;24.20;99.90;;;;;;5048967;28;20879;-67
2021/09/03 11:55:00;;;;;;;7.50;6.80;;;24.20;99.90;;;;;;5049389;28;20459;-67
2021/09/03 11:57:28;;;;;;;6.60;5.90;;;24.30;99.90;;;;;;5049705;28;20479;-67
2021/09/03 11:59:58;;;;;;;7.10;5.70;;;24.10;99.90;;;;;;5048806;28;20471;-68
2021/09/03 12:02:27;;;;;;;6.60;5.97;;;24.10;99.90;;;;;;5049304;28;20809;-67
2021/09/03 12:04:57;;;;;;;6.20;5.60;;;24.30;99.90;;;;;;5048915;28;20495;-67
2021/09/03 12:07:26;;;;;;;6.37;5.77;;;24.40;99.90;;;;;;5049594;28;20487;-67
2021/09/03 12:09:57;;;;;;;8.07;6.17;;;24.50;99.90;;;;;;5048688;28;20557;-67
2021/09/03 12:12:29;;;;;;;7.30;5.97;;;24.60;99.90;;;;;;5048490;28;20473;-67
2021/09/03 12:14:57;;;;;;;6.53;5.93;;;24.60;99.90;;;;;;5048105;28;20471;-68
2021/09/03 12:17:40;;;;;;;6.53;5.87;;;24.70;99.90;;;;;;5048416;28;21006;-67
2021/09/03 12:20:15;;;;;;;6.67;6.07;;;24.80;99.90;;;;;;5048413;28;20498;-67
2021/09/03 12:22:49;;;;;;;6.70;6.00;;;24.90;99.90;;;;;;5047969;28;20467;-67
2021/09/03 12:25:16;;;;;;;6.27;5.67;;;24.90;99.90;;;;;;5048389;28;20465;-67
2021/09/03 12:27:43;;;;;;;7.03;6.43;;;24.90;99.90;;;;;;5048551;28;20490;-67
2021/09/03 12:30:11;;;;;;;6.20;5.60;;;24.90;99.90;;;;;;5052678;28;20456;-67
2021/09/03 12:32:38;;;;;;;6.20;5.60;;;25.00;99.90;;;;;;5053326;28;20549;-67
2021/09/03 12:35:09;;;;;;;8.20;6.30;;;25.00;99.90;;;;;;5053114;28;20981;-67
2021/09/03 12:37:37;;;;;;;7.67;5.90;;;25.10;99.90;;;;;;5053195;28;20483;-68
2021/09/03 12:40:08;;;;;;;5.77;5.17;;;25.10;99.90;;;;;;5052622;28;20955;-68
2021/09/03 12:42:39;;;;;;;6.17;5.47;;;25.20;99.90;;;;;;5053006;28;20554;-67
2021/09/03 12:45:07;;;;;;;6.13;5.30;;;25.20;99.90;;;;;;5053436;28;20887;-67
2021/09/03 12:47:35;;;;;;;6.57;5.97;;;25.20;99.90;;;;;;5052584;28;20483;-67
2021/09/03 12:50:11;;;;;;;5.47;4.97;;;25.30;99.90;;;;;;5053036;28;20822;-67